Time;durP1;ratioP1;P1;durP2;ratioP2;P2;SDS_P1;SDS_P2;PMS_P1;PMS_P2;Temp;Humidity;BMP_temperature;BMP_pressure;BME280_temperature;BME280_humidity;BME280_pressure;Samples;Min_cycle;Max_cycle;Signal;HPM_P1;HPM_P2
2022/08/19 00:01:53;;;;;;;28.07;14.78;;;;;;;;;;1779477;80;21424;-83
2022/08/19 00:04:22;;;;;;;31.20;16.32;;;;;;;;;;1766817;80;21012;-83
2022/08/19 00:06:48;;;;;;;35.13;16.87;;;;;;;;;;1765644;80;21000;-83
2022/08/19 00:09:16;;;;;;;28.77;15.65;;;;;;;;;;1764017;81;20827;-84
2022/08/19 00:11:43;;;;;;;36.42;15.72;;;;;;;;;;1767467;80;21075;-83
2022/08/19 00:14:11;;;;;;;34.08;16.05;;;;;;;;;;1765099;80;21928;-83
2022/08/19 00:16:38;;;;;;;32.28;16.20;;;;;;;;;;1763591;81;22079;-83
2022/08/19 00:19:05;;;;;;;32.67;16.32;;;;;;;;;;1763957;80;21024;-83
2022/08/19 00:21:31;;;;;;;35.78;16.55;;;;;;;;;;1763873;80;20992;-84
2022/08/19 00:24:00;;;;;;;34.03;17.23;;;;;;;;;;1763892;80;20897;-84
2022/08/19 00:26:27;;;;;;;33.35;17.10;;;;;;;;;;1767241;80;21293;-84
2022/08/19 00:28:53;;;;;;;31.73;16.25;;;;;;;;;;1767804;80;21044;-83
2022/08/19 00:31:18;;;;;;;33.50;17.17;;;;;;;;;;1764399;81;20920;-84
2022/08/19 00:33:44;;;;;;;32.25;17.37;;;;;;;;;;1764464;81;20967;-83
2022/08/19 00:36:11;;;;;;;33.38;17.40;;;;;;;;;;1767880;80;20964;-84
2022/08/19 00:38:41;;;;;;;34.05;16.37;;;;;;;;;;1767686;81;21172;-84
2022/08/19 00:41:06;;;;;;;32.65;16.75;;;;;;;;;;1767539;81;21525;-83
2022/08/19 00:43:33;;;;;;;34.83;16.55;;;;;;;;;;1767633;81;20905;-84
2022/08/19 00:45:59;;;;;;;35.83;16.87;;;;;;;;;;1767430;80;21114;-84
2022/08/19 00:48:25;;;;;;;30.43;15.45;;;;;;;;;;1767943;81;21004;-84
2022/08/19 00:50:52;;;;;;;35.58;16.85;;;;;;;;;;1745760;81;21091;-83
2022/08/19 00:53:21;;;;;;;30.05;15.83;;;;;;;;;;1767187;81;21035;-84
2022/08/19 00:55:48;;;;;;;31.37;15.85;;;;;;;;;;1767992;81;21483;-83
2022/08/19 00:58:17;;;;;;;36.25;16.55;;;;;;;;;;1767628;80;20997;-83
2022/08/19 01:00:43;;;;;;;33.58;16.07;;;;;;;;;;1765166;80;21044;-83
2022/08/19 01:03:12;;;;;;;35.43;15.40;;;;;;;;;;1743387;82;21029;-83
2022/08/19 01:05:40;;;;;;;32.42;16.02;;;;;;;;;;1743098;82;21098;-83
2022/08/19 01:08:06;;;;;;;32.70;16.50;;;;;;;;;;1743561;82;21054;-83
2022/08/19 01:10:36;;;;;;;27.52;15.43;;;;;;;;;;1743271;82;21081;-83
2022/08/19 01:13:03;;;;;;;29.87;16.90;;;;;;;;;;1743444;82;21038;-83
2022/08/19 01:15:32;;;;;;;32.93;17.30;;;;;;;;;;1743098;82;21106;-83
2022/08/19 01:18:01;;;;;;;35.20;17.00;;;;;;;;;;1743136;82;20991;-83
2022/08/19 01:20:27;;;;;;;30.92;16.75;;;;;;;;;;1740226;82;21035;-83
2022/08/19 01:22:56;;;;;;;34.90;16.57;;;;;;;;;;1736594;82;20949;-83
2022/08/19 01:25:25;;;;;;;34.70;17.07;;;;;;;;;;1736610;82;20932;-82
2022/08/19 01:27:52;;;;;;;35.05;17.10;;;;;;;;;;1732194;82;21942;-82
2022/08/19 01:30:22;;;;;;;33.63;17.02;;;;;;;;;;1736550;82;21099;-83
2022/08/19 01:32:49;;;;;;;32.20;16.35;;;;;;;;;;1653289;85;21042;-83
2022/08/19 01:35:17;;;;;;;32.35;16.52;;;;;;;;;;1660585;85;21074;-83
2022/08/19 01:37:46;;;;;;;33.75;16.85;;;;;;;;;;1660683;85;21049;-84
2022/08/19 01:40:12;;;;;;;37.98;18.12;;;;;;;;;;1616779;88;21549;-83
2022/08/19 01:42:38;;;;;;;37.88;18.50;;;;;;;;;;1620173;88;21171;-83
2022/08/19 01:45:07;;;;;;;39.55;18.48;;;;;;;;;;1620234;88;21727;-83
2022/08/19 01:47:35;;;;;;;35.92;16.70;;;;;;;;;;1619628;88;21159;-83
2022/08/19 01:50:02;;;;;;;33.48;17.82;;;;;;;;;;1620224;88;21092;-83
2022/08/19 01:52:27;;;;;;;34.92;17.77;;;;;;;;;;1620247;88;21120;-84
2022/08/19 01:54:53;;;;;;;33.18;17.20;;;;;;;;;;1620195;88;20956;-83
2022/08/19 01:57:19;;;;;;;28.15;16.02;;;;;;;;;;1620283;88;20922;-84
2022/08/19 01:59:45;;;;;;;31.15;17.32;;;;;;;;;;1620084;88;20918;-83
2022/08/19 02:02:11;;;;;;;36.35;17.82;;;;;;;;;;1619431;88;21068;-83
2022/08/19 02:07:07;;;;;;;33.28;16.70;;;;;;;;;;1614858;88;20963;-83
2022/08/19 02:09:33;;;;;;;34.23;17.05;;;;;;;;;;1615032;88;21118;-84
2022/08/19 02:11:59;;;;;;;34.67;18.05;;;;;;;;;;1620320;88;20896;-84
2022/08/19 02:14:25;;;;;;;35.28;18.20;;;;;;;;;;1620586;88;21185;-83
2022/08/19 02:16:50;;;;;;;33.15;18.50;;;;;;;;;;1620551;88;21145;-83
2022/08/19 02:19:16;;;;;;;40.95;19.00;;;;;;;;;;1620345;88;21562;-83
2022/08/19 02:21:43;;;;;;;42.58;18.87;;;;;;;;;;1640453;87;20940;-83
2022/08/19 02:24:09;;;;;;;35.83;17.80;;;;;;;;;;1644637;87;21043;-83
2022/08/19 02:26:35;;;;;;;32.75;17.17;;;;;;;;;;1644699;87;20979;-83
2022/08/19 02:29:00;;;;;;;32.25;17.92;;;;;;;;;;1647986;86;21095;-83
2022/08/19 02:33:56;;;;;;;30.88;16.37;;;;;;;;;;1609138;88;21136;-83
2022/08/19 02:36:22;;;;;;;34.05;16.70;;;;;;;;;;1577635;90;21108;-84
2022/08/19 02:38:48;;;;;;;30.97;15.68;;;;;;;;;;1609441;89;21019;-84
2022/08/19 02:41:17;;;;;;;30.23;16.27;;;;;;;;;;1581201;90;21264;-83
2022/08/19 02:43:43;;;;;;;33.15;17.00;;;;;;;;;;1636304;85;21161;-82
2022/08/19 02:46:14;;;;;;;32.63;16.02;;;;;;;;;;1657862;86;20880;-82
2022/08/19 02:48:40;;;;;;;33.78;16.55;;;;;;;;;;1656265;86;21055;-83
2022/08/19 02:51:06;;;;;;;35.10;17.42;;;;;;;;;;1651055;84;21796;-84
2022/08/19 02:53:32;;;;;;;33.67;16.67;;;;;;;;;;1653518;86;21515;-83
2022/08/19 02:55:58;;;;;;;29.70;15.63;;;;;;;;;;1652511;86;20856;-83
2022/08/19 02:58:24;;;;;;;37.48;16.77;;;;;;;;;;1649629;86;21090;-83
2022/08/19 03:00:54;;;;;;;33.33;16.32;;;;;;;;;;1649918;86;21665;-84
2022/08/19 03:03:19;;;;;;;36.63;16.57;;;;;;;;;;1658819;85;21125;-83
2022/08/19 03:05:46;;;;;;;37.40;15.95;;;;;;;;;;1671579;85;21103;-82
2022/08/19 03:08:13;;;;;;;34.13;15.78;;;;;;;;;;1674414;85;21552;-83
2022/08/19 03:10:44;;;;;;;29.30;14.93;;;;;;;;;;1671992;84;21070;-83
2022/08/19 03:13:11;;;;;;;33.20;16.35;;;;;;;;;;1669070;84;21024;-83
2022/08/19 03:15:40;;;;;;;30.27;15.58;;;;;;;;;;1676401;85;21595;-83
2022/08/19 03:18:05;;;;;;;30.70;15.03;;;;;;;;;;1621948;87;21089;-83
2022/08/19 03:20:32;;;;;;;30.23;15.72;;;;;;;;;;1623570;87;20905;-82
2022/08/19 03:22:58;;;;;;;36.30;15.45;;;;;;;;;;1622447;87;21074;-83
2022/08/19 03:25:24;;;;;;;34.00;16.02;;;;;;;;;;1625346;86;22201;-83
2022/08/19 03:27:50;;;;;;;30.15;15.23;;;;;;;;;;1623478;87;21065;-82
2022/08/19 03:30:15;;;;;;;36.30;16.05;;;;;;;;;;1643918;84;21064;-83
2022/08/19 03:32:41;;;;;;;34.25;15.45;;;;;;;;;;1693714;84;20907;-83
2022/08/19 03:35:07;;;;;;;29.05;15.23;;;;;;;;;;1688433;84;21010;-83
2022/08/19 03:37:33;;;;;;;34.85;15.30;;;;;;;;;;1685616;84;20967;-82
2022/08/19 03:39:59;;;;;;;35.83;16.32;;;;;;;;;;1678033;84;21007;-83
2022/08/19 03:42:26;;;;;;;36.65;17.10;;;;;;;;;;1682675;84;22031;-83
2022/08/19 03:44:52;;;;;;;40.90;17.70;;;;;;;;;;1685820;84;21618;-82
2022/08/19 03:47:18;;;;;;;37.17;17.95;;;;;;;;;;1684572;84;20912;-83
2022/08/19 03:49:44;;;;;;;34.38;16.80;;;;;;;;;;1687325;84;21095;-83
2022/08/19 03:52:10;;;;;;;33.78;17.00;;;;;;;;;;1691704;84;21015;-83
2022/08/19 03:54:38;;;;;;;29.92;16.10;;;;;;;;;;1684507;84;20940;-81
2022/08/19 03:57:04;;;;;;;35.00;16.25;;;;;;;;;;1685215;83;21579;-83
2022/08/19 03:59:32;;;;;;;32.08;16.37;;;;;;;;;;1686314;83;21101;-83
2022/08/19 04:02:01;;;;;;;33.70;15.15;;;;;;;;;;1684958;84;21084;-84
2022/08/19 04:04:27;;;;;;;26.12;14.80;;;;;;;;;;1689006;84;21449;-83
2022/08/19 04:06:52;;;;;;;28.32;14.70;;;;;;;;;;1685660;84;21952;-83
2022/08/19 04:09:20;;;;;;;22.58;13.65;;;;;;;;;;1689943;83;21169;-83
2022/08/19 04:11:53;;;;;;;24.32;14.18;;;;;;;;;;1686197;84;21019;-83
2022/08/19 04:14:20;;;;;;;25.17;13.90;;;;;;;;;;1704981;80;21062;-85
2022/08/19 04:16:47;;;;;;;24.43;14.05;;;;;;;;;;1765947;80;21010;-83
2022/08/19 04:19:14;;;;;;;29.25;13.95;;;;;;;;;;1771810;80;21135;-83
2022/08/19 04:21:40;;;;;;;24.72;14.70;;;;;;;;;;1766805;80;21030;-83
2022/08/19 04:24:06;;;;;;;27.32;13.72;;;;;;;;;;1748186;80;21015;-84
2022/08/19 04:26:35;;;;;;;23.18;14.45;;;;;;;;;;1762975;80;21059;-82
2022/08/19 04:29:04;;;;;;;20.17;13.40;;;;;;;;;;1763019;80;21010;-84
2022/08/19 04:31:32;;;;;;;22.90;13.58;;;;;;;;;;1750378;80;21099;-83
2022/08/19 04:34:00;;;;;;;20.57;13.30;;;;;;;;;;1745190;80;21075;-83
2022/08/19 04:36:29;;;;;;;25.08;13.95;;;;;;;;;;1770993;80;21058;-81
2022/08/19 04:38:56;;;;;;;22.73;14.35;;;;;;;;;;1750847;80;21082;-82
2022/08/19 04:44:08;;;;;;;19.65;13.53;;;;;;;;;;1750650;80;21015;-84
2022/08/19 04:46:34;;;;;;;23.50;14.23;;;;;;;;;;1749067;82;21538;-84
2022/08/19 04:49:01;;;;;;;25.10;14.45;;;;;;;;;;1757490;80;21011;-83
2022/08/19 04:51:27;;;;;;;29.80;13.83;;;;;;;;;;1767802;80;21095;-83
2022/08/19 04:53:53;;;;;;;23.02;13.60;;;;;;;;;;1775403;80;22190;-82
2022/08/19 04:56:22;;;;;;;22.95;13.78;;;;;;;;;;1781873;80;21153;-84
2022/08/19 04:58:51;;;;;;;23.98;13.75;;;;;;;;;;1781542;80;21042;-83
2022/08/19 05:01:22;;;;;;;23.27;11.95;;;;;;;;;;1781795;80;21111;-83
2022/08/19 05:03:49;;;;;;;18.65;12.37;;;;;;;;;;1713672;83;21083;-83
2022/08/19 05:06:17;;;;;;;23.32;12.85;;;;;;;;;;1708121;84;21614;-85
2022/08/19 05:08:43;;;;;;;24.37;12.68;;;;;;;;;;1706737;83;21009;-87
2022/08/19 05:11:25;;;;;;;24.52;13.40;;;;;;;;;;1708185;84;21106;-85
2022/08/19 05:13:51;;;;;;;26.12;14.80;;;;;;;;;;1684839;85;21114;-86
2022/08/19 05:16:20;;;;;;;26.17;14.60;;;;;;;;;;1684990;85;20972;-85
2022/08/19 05:24:16;;;;;;;26.87;14.83;;;;;;;;;;1699433;83;21189;-85
2022/08/19 05:26:45;;;;;;;22.35;13.95;;;;;;;;;;1683966;85;21085;-87
2022/08/19 05:29:12;;;;;;;23.73;15.00;;;;;;;;;;1683156;83;21197;-85
2022/08/19 05:31:38;;;;;;;22.60;14.33;;;;;;;;;;1690057;83;21062;-86
2022/08/19 05:34:04;;;;;;;27.02;15.38;;;;;;;;;;1685115;85;21154;-85
2022/08/19 05:36:35;;;;;;;30.20;16.62;;;;;;;;;;1683842;83;41235;-86
2022/08/19 05:39:01;;;;;;;29.12;16.35;;;;;;;;;;1701876;83;21094;-86
2022/08/19 05:41:30;;;;;;;31.73;16.05;;;;;;;;;;1708082;83;21079;-84
2022/08/19 05:43:57;;;;;;;30.57;15.90;;;;;;;;;;1720703;83;21023;-84
2022/08/19 05:46:23;;;;;;;27.27;15.95;;;;;;;;;;1720669;83;21962;-85
2022/08/19 05:48:49;;;;;;;32.88;17.62;;;;;;;;;;1720842;83;20951;-85
2022/08/19 05:51:15;;;;;;;26.97;16.65;;;;;;;;;;1720828;83;21527;-85
2022/08/19 05:53:43;;;;;;;38.58;17.27;;;;;;;;;;1720728;83;21078;-85
2022/08/19 05:56:12;;;;;;;37.85;15.58;;;;;;;;;;1720799;83;21062;-85
2022/08/19 05:58:38;;;;;;;26.77;14.45;;;;;;;;;;1720880;83;21070;-85
2022/08/19 06:01:09;;;;;;;23.95;13.58;;;;;;;;;;1741054;82;21122;-85
2022/08/19 06:03:37;;;;;;;20.43;14.05;;;;;;;;;;1746669;82;21087;-85
2022/08/19 06:06:03;;;;;;;24.32;14.45;;;;;;;;;;1724746;82;21048;-85
2022/08/19 06:08:30;;;;;;;20.45;13.45;;;;;;;;;;1749514;82;21068;-86
2022/08/19 06:10:56;;;;;;;27.50;14.07;;;;;;;;;;1749685;82;21800;-85
2022/08/19 06:13:23;;;;;;;22.42;12.30;;;;;;;;;;1749418;82;21528;-85
2022/08/19 06:15:49;;;;;;;22.82;12.47;;;;;;;;;;1749260;82;21009;-84
2022/08/19 06:18:15;;;;;;;19.10;12.82;;;;;;;;;;1744867;82;21553;-88
2022/08/19 06:20:41;;;;;;;20.85;11.85;;;;;;;;;;1733868;82;21103;-89
2022/08/19 06:23:08;;;;;;;24.32;13.43;;;;;;;;;;1729023;82;21049;-87
2022/08/19 06:25:35;;;;;;;19.17;12.00;;;;;;;;;;1729519;82;21562;-88
2022/08/19 06:28:02;;;;;;;17.23;11.60;;;;;;;;;;1729758;82;21066;-90
2022/08/19 06:30:28;;;;;;;21.45;11.38;;;;;;;;;;1722984;81;21109;-88
2022/08/19 06:32:54;;;;;;;16.90;12.20;;;;;;;;;;1712788;81;21078;-86
2022/08/19 06:35:19;;;;;;;16.75;12.10;;;;;;;;;;1757381;80;21091;-85
2022/08/19 06:37:45;;;;;;;14.40;10.63;;;;;;;;;;1784025;80;20951;-86
2022/08/19 06:40:12;;;;;;;15.48;11.25;;;;;;;;;;1784120;80;21711;-90
2022/08/19 06:42:38;;;;;;;15.75;11.33;;;;;;;;;;1783798;80;20999;-87
2022/08/19 06:45:05;;;;;;;18.60;10.72;;;;;;;;;;1784122;80;20996;-89
2022/08/19 06:47:34;;;;;;;14.30;10.93;;;;;;;;;;1783906;80;21857;-87
2022/08/19 06:50:02;;;;;;;15.15;10.78;;;;;;;;;;1783514;80;21069;-87
2022/08/19 06:52:33;;;;;;;18.77;11.03;;;;;;;;;;1753747;80;21011;-87
2022/08/19 06:54:59;;;;;;;;;;;;;;;;;;1756556;80;21204;-87
2022/08/19 06:57:25;;;;;;;12.73;11.20;;;;;;;;;;1784231;80;20151;-85
2022/08/19 06:59:52;;;;;;;13.93;10.82;;;;;;;;;;1784086;80;21946;-86
2022/08/19 07:02:18;;;;;;;15.50;12.25;;;;;;;;;;1784119;80;21082;-85
2022/08/19 07:04:44;;;;;;;15.25;11.50;;;;;;;;;;1784416;80;21031;-86
2022/08/19 07:07:14;;;;;;;14.98;11.00;;;;;;;;;;1776957;80;20888;-85
2022/08/19 07:09:43;;;;;;;14.15;11.22;;;;;;;;;;1772913;80;21105;-86
2022/08/19 07:12:14;;;;;;;17.85;11.73;;;;;;;;;;1764081;80;21120;-87
2022/08/19 07:14:40;;;;;;;20.52;11.22;;;;;;;;;;1753329;81;21093;-85
2022/08/19 07:17:09;;;;;;;13.90;11.38;;;;;;;;;;1752033;80;20951;-86
2022/08/19 07:19:35;;;;;;;14.18;10.58;;;;;;;;;;1748908;79;21098;-84
2022/08/19 07:22:03;;;;;;;15.32;11.53;;;;;;;;;;1747149;81;21046;-84
2022/08/19 07:24:29;;;;;;;14.10;11.28;;;;;;;;;;1744689;80;21142;-81
2022/08/19 07:27:00;;;;;;;15.30;11.57;;;;;;;;;;1765181;80;21028;-85
2022/08/19 07:29:24;;;;;;;16.02;11.40;;;;;;;;;;1742914;82;21007;-85
2022/08/19 07:31:51;;;;;;;18.60;11.93;;;;;;;;;;1747706;80;20936;-84
2022/08/19 07:34:18;;;;;;;16.15;11.68;;;;;;;;;;1770406;80;21051;-85
2022/08/19 07:36:44;;;;;;;22.17;12.35;;;;;;;;;;1767263;81;21596;-84
2022/08/19 07:39:19;;;;;;;18.40;12.07;;;;;;;;;;1767468;81;21014;-86
2022/08/19 07:41:46;;;;;;;17.07;11.70;;;;;;;;;;1767558;81;21595;-86
2022/08/19 07:44:13;;;;;;;15.63;11.63;;;;;;;;;;1751891;80;21496;-84
2022/08/19 07:46:44;;;;;;;16.55;11.80;;;;;;;;;;1743356;82;21082;-84
2022/08/19 07:49:17;;;;;;;18.97;12.93;;;;;;;;;;1756936;81;21138;-86
2022/08/19 07:51:38;;;;;;;20.17;11.70;;;;;;;;;;1763727;81;21684;-87
2022/08/19 07:54:04;;;;;;;16.55;11.48;;;;;;;;;;1764491;81;22350;-85
2022/08/19 07:56:30;;;;;;;15.38;11.20;;;;;;;;;;1763890;81;20905;-85
2022/08/19 07:58:55;;;;;;;16.52;11.12;;;;;;;;;;1767033;80;21199;-86
2022/08/19 08:01:24;;;;;;;16.35;11.15;;;;;;;;;;1745203;80;21102;-86
2022/08/19 08:09:23;;;;;;;16.10;10.93;;;;;;;;;;1734449;82;21012;-85
2022/08/19 08:12:02;;;;;;;15.35;11.33;;;;;;;;;;1734844;82;21028;-83
2022/08/19 08:14:30;;;;;;;17.07;11.55;;;;;;;;;;1650069;85;21524;-85
2022/08/19 08:16:57;;;;;;;16.42;12.03;;;;;;;;;;1656586;86;21071;-83
2022/08/19 08:19:24;;;;;;;17.12;11.38;;;;;;;;;;1659606;85;21067;-86
2022/08/19 08:21:51;;;;;;;13.32;11.28;;;;;;;;;;1658856;86;21032;-85
2022/08/19 08:24:17;;;;;;;15.20;11.22;;;;;;;;;;1659474;86;21647;-85
2022/08/19 08:29:12;;;;;;;14.63;11.83;;;;;;;;;;1608504;88;21039;-84
2022/08/19 08:31:40;;;;;;;12.35;10.80;;;;;;;;;;1604622;89;21117;-85
2022/08/19 08:34:07;;;;;;;13.65;11.50;;;;;;;;;;1606118;88;21077;-85
2022/08/19 08:36:34;;;;;;;18.35;11.45;;;;;;;;;;1617743;88;21126;-86
2022/08/19 08:39:01;;;;;;;17.15;11.53;;;;;;;;;;1618551;88;21121;-86
2022/08/19 08:41:49;;;;;;;12.20;10.10;;;;;;;;;;1618580;88;21099;-84
2022/08/19 08:44:18;;;;;;;15.10;10.85;;;;;;;;;;1615709;88;21844;-83
2022/08/19 08:46:49;;;;;;;16.52;11.38;;;;;;;;;;1563255;91;21156;-86
2022/08/19 08:49:34;;;;;;;13.88;10.85;;;;;;;;;;1535237;93;21158;-85
2022/08/19 08:52:09;;;;;;;16.10;11.12;;;;;;;;;;1533645;93;21162;-86
2022/08/19 08:54:43;;;;;;;15.23;10.43;;;;;;;;;;1559020;90;21119;-85
2022/08/19 08:57:15;;;;;;;13.40;10.20;;;;;;;;;;1553853;92;21149;-85
2022/08/19 08:59:43;;;;;;;14.10;10.65;;;;;;;;;;1581379;89;21232;-85
2022/08/19 09:02:09;;;;;;;11.22;9.70;;;;;;;;;;1582961;89;21112;-86
2022/08/19 09:04:38;;;;;;;16.70;9.63;;;;;;;;;;1582172;89;21955;-85
2022/08/19 09:07:26;;;;;;;11.80;10.58;;;;;;;;;;1581895;90;21202;-87
2022/08/19 09:09:52;;;;;;;12.73;9.83;;;;;;;;;;1581948;89;21098;-86
2022/08/19 09:12:22;;;;;;;13.03;9.73;;;;;;;;;;1582211;89;20994;-84
2022/08/19 09:14:57;;;;;;;11.05;9.95;;;;;;;;;;1573876;90;21175;-84
2022/08/19 09:20:02;;;;;;;13.15;10.50;;;;;;;;;;1601401;89;21115;-84
2022/08/19 09:22:27;;;;;;;11.28;9.68;;;;;;;;;;1582105;90;21614;-83
2022/08/19 09:24:53;;;;;;;11.83;9.70;;;;;;;;;;1576484;90;20923;-85
2022/08/19 09:27:20;;;;;;;10.28;9.23;;;;;;;;;;1684874;85;21118;-85
2022/08/19 09:29:48;;;;;;;17.12;9.43;;;;;;;;;;1684679;85;21141;-83
2022/08/19 09:32:14;;;;;;;11.63;9.60;;;;;;;;;;1680502;84;21047;-83
2022/08/19 09:34:41;;;;;;;13.78;9.93;;;;;;;;;;1671743;84;21070;-83
2022/08/19 09:37:07;;;;;;;13.32;9.58;;;;;;;;;;1677471;84;21086;-84
2022/08/19 09:39:32;;;;;;;13.65;9.75;;;;;;;;;;1685264;84;20943;-84
2022/08/19 09:41:58;;;;;;;14.53;9.45;;;;;;;;;;1692774;84;21717;-83
2022/08/19 09:44:24;;;;;;;14.20;9.68;;;;;;;;;;1662171;86;20913;-83
2022/08/19 09:46:50;;;;;;;16.80;9.38;;;;;;;;;;1657352;86;21060;-83
2022/08/19 09:49:18;;;;;;;17.82;10.08;;;;;;;;;;1657195;86;21022;-83
2022/08/19 09:51:44;;;;;;;15.13;9.38;;;;;;;;;;1657389;86;21635;-82
2022/08/19 09:54:10;;;;;;;18.60;9.50;;;;;;;;;;1657308;86;21122;-87
2022/08/19 09:56:36;;;;;;;14.70;9.33;;;;;;;;;;1657259;86;20922;-83
2022/08/19 09:59:03;;;;;;;17.30;9.13;;;;;;;;;;1662757;84;20918;-83
2022/08/19 10:01:30;;;;;;;17.20;9.98;;;;;;;;;;1692988;84;21543;-85
2022/08/19 10:03:58;;;;;;;18.00;9.93;;;;;;;;;;1692993;84;21085;-82
2022/08/19 10:06:26;;;;;;;19.02;9.83;;;;;;;;;;1693623;84;21073;-83
2022/08/19 10:08:52;;;;;;;17.35;9.70;;;;;;;;;;1691951;84;21011;-83
2022/08/19 10:11:19;;;;;;;13.38;9.68;;;;;;;;;;1693414;84;21094;-83
2022/08/19 10:13:45;;;;;;;14.00;9.00;;;;;;;;;;1705124;83;21086;-84
2022/08/19 10:16:13;;;;;;;14.53;8.83;;;;;;;;;;1734565;80;20971;-83
2022/08/19 10:18:43;;;;;;;15.30;9.13;;;;;;;;;;1773903;80;21733;-83
2022/08/19 10:21:23;;;;;;;13.65;9.15;;;;;;;;;;1773467;80;21028;-83
2022/08/19 10:23:51;;;;;;;15.72;8.65;;;;;;;;;;1780693;80;21022;-83
2022/08/19 10:26:20;;;;;;;27.15;9.83;;;;;;;;;;1782163;80;21070;-83
2022/08/19 10:28:46;;;;;;;14.80;9.18;;;;;;;;;;1782238;80;21543;-83
2022/08/19 10:31:22;;;;;;;12.13;8.60;;;;;;;;;;1782132;80;21067;-85
2022/08/19 10:33:49;;;;;;;15.55;8.95;;;;;;;;;;1782420;80;21480;-85
2022/08/19 10:36:18;;;;;;;12.68;9.05;;;;;;;;;;1782316;80;21015;-84
2022/08/19 10:38:49;;;;;;;13.28;8.65;;;;;;;;;;1709549;83;21611;-86
2022/08/19 10:41:22;;;;;;;14.95;8.03;;;;;;;;;;1709725;83;21071;-84
2022/08/19 10:43:48;;;;;;;11.73;8.38;;;;;;;;;;1707426;83;21291;-83
2022/08/19 10:46:15;;;;;;;15.65;8.40;;;;;;;;;;1698914;83;20872;-83
2022/08/19 10:48:42;;;;;;;15.83;8.73;;;;;;;;;;1704981;84;21020;-83
2022/08/19 10:53:53;;;;;;;14.15;8.13;;;;;;;;;;1698275;83;21563;-81
2022/08/19 10:59:04;;;;;;;19.15;8.80;;;;;;;;;;1719081;82;21082;-83
2022/08/19 11:01:32;;;;;;;13.15;8.55;;;;;;;;;;1718894;83;21090;-85
2022/08/19 11:04:00;;;;;;;13.60;7.90;;;;;;;;;;1718922;83;21020;-84
2022/08/19 11:06:26;;;;;;;13.90;8.25;;;;;;;;;;1719255;83;21065;-83
2022/08/19 11:08:54;;;;;;;11.95;7.75;;;;;;;;;;1719089;83;21064;-85
2022/08/19 11:11:21;;;;;;;11.10;7.83;;;;;;;;;;1718944;83;21086;-83
2022/08/19 11:13:47;;;;;;;11.05;7.90;;;;;;;;;;1712989;83;21568;-82
2022/08/19 11:16:22;;;;;;;12.00;8.40;;;;;;;;;;1705084;83;21077;-83
2022/08/19 11:18:54;;;;;;;13.00;8.45;;;;;;;;;;1705669;83;21085;-83
2022/08/19 11:21:21;;;;;;;;;;;;;;;;;;1707934;83;21152;-84
2022/08/19 11:23:48;;;;;;;12.58;8.15;;;;;;;;;;1679028;85;20179;-85
2022/08/19 11:26:15;;;;;;;13.05;8.03;;;;;;;;;;1696080;83;21503;-85
2022/08/19 11:28:41;;;;;;;10.55;7.97;;;;;;;;;;1687386;83;21070;-84
2022/08/19 11:31:13;;;;;;;12.65;7.95;;;;;;;;;;1702915;83;21081;-83
2022/08/19 11:33:39;;;;;;;13.65;7.95;;;;;;;;;;1590536;90;22964;-83
2022/08/19 11:36:06;;;;;;;13.45;8.65;;;;;;;;;;1614865;88;21083;-85
2022/08/19 11:38:32;;;;;;;13.90;8.08;;;;;;;;;;1619566;87;21042;-85
2022/08/19 11:41:00;;;;;;;16.07;8.63;;;;;;;;;;1609807;88;21003;-87
2022/08/19 11:43:27;;;;;;;17.12;8.50;;;;;;;;;;1609810;89;21082;-87
2022/08/19 11:45:55;;;;;;;19.48;8.25;;;;;;;;;;1613457;87;21114;-84
2022/08/19 11:48:22;;;;;;;18.42;8.20;;;;;;;;;;1609729;89;21087;-87
2022/08/19 11:50:52;;;;;;;21.87;8.03;;;;;;;;;;1594561;89;21063;-86
2022/08/19 11:53:19;;;;;;;43.98;10.08;;;;;;;;;;1584810;90;21117;-85
2022/08/19 11:55:48;;;;;;;34.88;9.68;;;;;;;;;;1584358;90;21085;-91
2022/08/19 11:58:15;;;;;;;35.00;9.55;;;;;;;;;;1535198;93;21131;-87
2022/08/19 12:00:44;;;;;;;24.27;7.75;;;;;;;;;;1534769;93;21663;-82
2022/08/19 12:03:11;;;;;;;24.20;8.13;;;;;;;;;;1508622;93;21156;-83
2022/08/19 12:05:38;;;;;;;27.80;8.85;;;;;;;;;;1535159;93;21096;-86
2022/08/19 12:10:33;;;;;;;32.60;7.40;;;;;;;;;;1495444;94;21144;-89
2022/08/19 12:12:59;;;;;;;38.20;8.78;;;;;;;;;;1493994;96;21118;-90
2022/08/19 12:15:28;;;;;;;22.50;9.48;;;;;;;;;;1493957;96;21076;-88
2022/08/19 12:17:56;;;;;;;31.00;9.08;;;;;;;;;;1493833;94;21150;-88
2022/08/19 12:20:21;;;;;;;55.65;9.35;;;;;;;;;;1509423;93;21088;-90
2022/08/19 12:22:48;;;;;;;147.05;12.37;;;;;;;;;;1536265;93;21063;-92
2022/08/19 12:25:14;;;;;;;309.50;16.90;;;;;;;;;;1533102;93;21057;-95
2022/08/19 12:27:39;;;;;;;207.95;14.10;;;;;;;;;;1533808;93;20979;-94
2022/08/19 12:30:10;;;;;;;85.50;11.50;;;;;;;;;;1550172;91;20881;-96
2022/08/19 12:32:36;;;;;;;55.98;10.45;;;;;;;;;;1577583;90;21072;-96
2022/08/19 12:35:05;;;;;;;375.48;20.40;;;;;;;;;;1587222;90;21127;-96
2022/08/19 12:37:37;;;;;;;1016.72;42.85;;;;;;;;;;1571071;91;21098;-96
2022/08/19 12:40:27;;;;;;;26.27;10.25;;;;;;;;;;1585555;89;21117;-96
2022/08/19 12:43:00;;;;;;;348.30;20.65;;;;;;;;;;1424216;96;21260;-96
2022/08/19 12:45:45;;;;;;;;;;;;;;;;;;;;;
2022/08/19 12:48:05;;;;;;;43.25;12.73;;;;;;;;;;1391244;101;21156;-96
2022/08/19 12:50:31;;;;;;;27.70;12.63;;;;;;;;;;1364479;103;21089;-96
2022/08/19 12:52:59;;;;;;;34.73;13.32;;;;;;;;;;1364181;104;21021;-96
2022/08/19 12:55:24;;;;;;;37.00;14.15;;;;;;;;;;1343219;105;21205;-96
2022/08/19 12:57:50;;;;;;;56.77;15.78;;;;;;;;;;1316081;107;21004;-96
2022/08/19 13:00:20;;;;;;;68.65;17.40;;;;;;;;;;1335558;106;21181;-95
2022/08/19 13:02:50;;;;;;;520.57;32.40;;;;;;;;;;1315199;107;21160;-94
2022/08/19 13:05:26;;;;;;;35.92;17.27;;;;;;;;;;1329683;107;21192;-94
2022/08/19 13:07:55;;;;;;;84.03;19.02;;;;;;;;;;1346935;104;21218;-94
2022/08/19 13:10:23;;;;;;;35.75;17.30;;;;;;;;;;1359251;104;21690;-92
2022/08/19 13:12:50;;;;;;;45.10;16.65;;;;;;;;;;1392579;100;21310;-93
2022/08/19 13:15:20;;;;;;;31.10;15.32;;;;;;;;;;1380816;102;21134;-93
2022/08/19 13:17:48;;;;;;;30.48;15.78;;;;;;;;;;1377703;102;21622;-94
2022/08/19 13:20:17;;;;;;;27.65;14.65;;;;;;;;;;1444884;95;21123;-93
2022/08/19 13:22:44;;;;;;;33.18;13.93;;;;;;;;;;1501194;95;21125;-93
2022/08/19 13:25:10;;;;;;;25.88;13.68;;;;;;;;;;1523431;93;21217;-91
2022/08/19 13:27:37;;;;;;;23.95;12.95;;;;;;;;;;1516574;93;22197;-89
2022/08/19 13:35:33;;;;;;;26.62;13.98;;;;;;;;;;1556602;92;21123;-86
2022/08/19 13:38:00;;;;;;;29.80;14.03;;;;;;;;;;1535441;92;21132;-87
2022/08/19 13:40:26;;;;;;;26.35;13.20;;;;;;;;;;1526453;92;21153;-87
2022/08/19 13:42:54;;;;;;;28.77;14.50;;;;;;;;;;1530801;90;21010;-87
2022/08/19 13:45:24;;;;;;;35.03;15.45;;;;;;;;;;1559156;91;21172;-87
2022/08/19 13:47:53;;;;;;;30.17;15.50;;;;;;;;;;1632132;85;20997;-87
2022/08/19 13:50:22;;;;;;;30.88;15.23;;;;;;;;;;1665795;85;21132;-86
2022/08/19 13:52:48;;;;;;;36.13;16.77;;;;;;;;;;1670341;85;21145;-87
2022/08/19 13:55:15;;;;;;;32.85;16.32;;;;;;;;;;1672024;85;21523;-87
2022/08/19 13:57:42;;;;;;;42.00;16.80;;;;;;;;;;1669025;85;21053;-87
2022/08/19 14:00:11;;;;;;;43.50;17.67;;;;;;;;;;1682830;85;20941;-88
2022/08/19 14:02:38;;;;;;;42.03;17.23;;;;;;;;;;1666652;84;21041;-87
2022/08/19 14:05:06;;;;;;;43.58;18.30;;;;;;;;;;1644871;85;21068;-89
2022/08/19 14:07:31;;;;;;;253.22;24.55;;;;;;;;;;1650037;86;21072;-90
2022/08/19 14:09:57;;;;;;;503.05;33.60;;;;;;;;;;1658786;85;20878;-89
2022/08/19 14:12:23;;;;;;;296.40;25.68;;;;;;;;;;1671090;85;21347;-90
2022/08/19 14:14:49;;;;;;;146.77;21.30;;;;;;;;;;1667982;85;21148;-90
2022/08/19 14:17:15;;;;;;;46.50;18.95;;;;;;;;;;1676450;85;20960;-90
2022/08/19 14:19:42;;;;;;;41.60;18.37;;;;;;;;;;1687194;85;20998;-89
2022/08/19 14:22:07;;;;;;;49.93;18.55;;;;;;;;;;1672535;85;22505;-90
2022/08/19 14:24:33;;;;;;;50.23;18.32;;;;;;;;;;1684835;85;20927;-91
2022/08/19 14:26:59;;;;;;;40.67;18.23;;;;;;;;;;1656388;85;21125;-91
2022/08/19 14:29:29;;;;;;;200.95;26.68;;;;;;;;;;1660599;85;21005;-90
2022/08/19 14:31:58;;;;;;;45.60;19.32;;;;;;;;;;1658645;85;20993;-91
2022/08/19 14:34:22;;;;;;;42.62;17.73;;;;;;;;;;1647362;85;21064;-89
2022/08/19 14:36:48;;;;;;;40.45;18.00;;;;;;;;;;1682791;85;21719;-89
2022/08/19 14:39:14;;;;;;;37.35;19.15;;;;;;;;;;1688311;84;21243;-83
2022/08/19 14:44:12;;;;;;;51.75;20.85;;;;;;;;;;1611057;87;21165;-86
2022/08/19 14:46:36;;;;;;;49.58;21.20;;;;;;;;;;1594264;89;21058;-84
2022/08/19 14:49:02;;;;;;;42.62;20.65;;;;;;;;;;1583980;90;20927;-83
2022/08/19 14:51:28;;;;;;;50.80;19.95;;;;;;;;;;1584290;88;21255;-84
2022/08/19 14:53:54;;;;;;;74.27;21.85;;;;;;;;;;1597266;89;21594;-84
2022/08/19 14:56:23;;;;;;;320.37;32.63;;;;;;;;;;1604054;88;21462;-84
2022/08/19 14:58:51;;;;;;;110.68;23.95;;;;;;;;;;1605330;87;21604;-83
2022/08/19 15:01:20;;;;;;;48.68;21.57;;;;;;;;;;1605619;89;21102;-82
2022/08/19 15:03:47;;;;;;;58.73;22.67;;;;;;;;;;1605451;89;21587;-83